Time;durP1;ratioP1;P1;durP2;ratioP2;P2;SDS_P1;SDS_P2;PMS_P1;PMS_P2;Temp;Humidity;BMP_temperature;BMP_pressure;BME280_temperature;BME280_humidity;BME280_pressure;Samples;Min_cycle;Max_cycle;Signal;HPM_P1;HPM_P2
2023/08/06 00:00:26;;;;;;;17.52;14.63;;;14.40;99.90;;;;;;5113101;27;20074;-63
2023/08/06 00:02:52;;;;;;;21.27;16.48;;;14.40;99.90;;;;;;5093532;27;20059;-63
2023/08/06 00:05:20;;;;;;;20.27;14.98;;;14.50;99.90;;;;;;5115486;27;20051;-64
2023/08/06 00:07:49;;;;;;;17.08;13.43;;;14.50;99.90;;;;;;5098688;27;20043;-63
2023/08/06 00:10:15;;;;;;;19.90;15.65;;;14.50;99.90;;;;;;5086219;27;20035;-64
2023/08/06 00:12:41;;;;;;;23.60;15.57;;;14.50;99.90;;;;;;5111478;27;20051;-64
2023/08/06 00:15:07;;;;;;;21.67;14.63;;;14.50;99.90;;;;;;5096973;27;20376;-64
2023/08/06 00:17:34;;;;;;;19.55;14.02;;;14.50;99.90;;;;;;5109777;27;21905;-63
2023/08/06 00:20:04;;;;;;;18.40;13.45;;;14.50;99.90;;;;;;5116819;27;20386;-63
2023/08/06 00:22:40;;;;;;;20.95;13.63;;;14.50;99.90;;;;;;5100337;28;20067;-63
2023/08/06 00:25:06;;;;;;;19.48;14.52;;;14.50;99.90;;;;;;5098026;28;20043;-63
2023/08/06 00:27:35;;;;;;;17.50;13.75;;;14.50;99.90;;;;;;5093995;28;20046;-63
2023/08/06 00:30:00;;;;;;;16.50;12.38;;;14.40;99.90;;;;;;5111893;27;20055;-63
2023/08/06 00:32:26;;;;;;;15.70;12.80;;;14.50;99.90;;;;;;5118613;27;20043;-63
2023/08/06 00:34:52;;;;;;;18.92;13.95;;;14.40;99.90;;;;;;5096433;28;20126;-63
2023/08/06 00:37:17;;;;;;;16.10;13.10;;;14.50;99.90;;;;;;5114744;27;20031;-63
2023/08/06 00:39:44;;;;;;;16.88;12.93;;;14.40;99.90;;;;;;5117027;27;20518;-63
2023/08/06 00:42:11;;;;;;;15.48;12.32;;;14.40;99.90;;;;;;5093882;28;20050;-63
2023/08/06 00:44:37;;;;;;;15.70;12.52;;;14.40;99.90;;;;;;5095509;27;20430;-63
2023/08/06 00:47:03;;;;;;;17.58;13.18;;;14.30;99.90;;;;;;5081640;28;20110;-63
2023/08/06 00:49:29;;;;;;;14.40;12.52;;;14.40;99.90;;;;;;5090592;28;20043;-63
2023/08/06 00:51:56;;;;;;;17.83;13.43;;;14.40;99.90;;;;;;5114691;27;20383;-63
2023/08/06 00:54:23;;;;;;;18.80;14.10;;;14.30;99.90;;;;;;5111162;27;20084;-63
2023/08/06 00:56:48;;;;;;;16.13;12.45;;;14.30;99.90;;;;;;5106676;28;20067;-63
2023/08/06 00:59:14;;;;;;;13.57;11.18;;;14.30;99.90;;;;;;5098089;28;20074;-63
2023/08/06 01:01:40;;;;;;;17.13;13.77;;;14.30;99.90;;;;;;5096956;28;20088;-63
2023/08/06 01:04:06;;;;;;;19.63;12.98;;;14.30;99.90;;;;;;5109951;28;20122;-63
2023/08/06 01:06:43;;;;;;;16.98;14.38;;;14.30;99.90;;;;;;5112370;28;20440;-64
2023/08/06 01:09:36;;;;;;;15.50;11.68;;;14.40;99.90;;;;;;5111479;27;20513;-64
2023/08/06 01:12:17;;;;;;;19.05;13.32;;;14.40;99.90;;;;;;5098971;27;20044;-63
2023/08/06 01:14:51;;;;;;;14.93;11.93;;;14.40;99.90;;;;;;5092305;27;20151;-63
2023/08/06 01:17:18;;;;;;;21.85;15.77;;;14.40;99.90;;;;;;5102259;27;20094;-63
2023/08/06 01:19:43;;;;;;;17.08;13.48;;;14.40;99.90;;;;;;5114590;27;20066;-64
2023/08/06 01:22:09;;;;;;;19.67;14.13;;;14.40;99.90;;;;;;5099948;27;20082;-63
2023/08/06 01:24:35;;;;;;;22.90;15.15;;;14.40;99.90;;;;;;5093752;27;20385;-64
2023/08/06 01:27:11;;;;;;;21.15;14.25;;;14.40;99.90;;;;;;5101525;27;20438;-64
2023/08/06 01:29:47;;;;;;;16.90;13.23;;;14.40;99.90;;;;;;5088827;27;20126;-64
2023/08/06 01:32:15;;;;;;;20.10;14.55;;;14.40;99.90;;;;;;5120012;27;20775;-64
2023/08/06 01:34:43;;;;;;;13.02;11.50;;;14.40;99.90;;;;;;5119775;27;20071;-64
2023/08/06 01:37:09;;;;;;;19.40;15.45;;;14.40;99.90;;;;;;5102360;27;20119;-64
2023/08/06 01:39:35;;;;;;;17.65;14.25;;;14.40;99.90;;;;;;5092645;27;20039;-64
2023/08/06 01:42:01;;;;;;;16.35;12.50;;;14.40;99.90;;;;;;5112472;27;20104;-63
2023/08/06 01:44:27;;;;;;;20.55;16.10;;;14.50;99.90;;;;;;5114849;27;20507;-63
2023/08/06 01:46:53;;;;;;;15.13;12.93;;;14.50;99.90;;;;;;5097802;27;20546;-63
2023/08/06 01:49:18;;;;;;;17.33;13.45;;;14.50;99.90;;;;;;5113974;27;20031;-63
2023/08/06 01:51:44;;;;;;;18.83;14.63;;;14.50;99.90;;;;;;5100251;27;20541;-63
2023/08/06 01:54:10;;;;;;;21.45;16.23;;;14.50;99.90;;;;;;5099634;27;20289;-63
2023/08/06 01:56:36;;;;;;;21.88;16.33;;;14.50;99.90;;;;;;5097714;27;20587;-61
2023/08/06 01:59:01;;;;;;;19.83;15.20;;;14.50;99.90;;;;;;5116428;27;20337;-61
2023/08/06 02:01:27;;;;;;;19.38;15.73;;;14.50;99.90;;;;;;5098609;27;20541;-61
2023/08/06 02:03:53;;;;;;;19.80;15.90;;;14.50;99.90;;;;;;5118411;27;20035;-61
2023/08/06 02:06:18;;;;;;;22.85;15.90;;;14.50;99.90;;;;;;5114237;27;20526;-61
2023/08/06 02:08:44;;;;;;;19.17;13.80;;;14.50;99.90;;;;;;5096814;27;20209;-61
2023/08/06 02:11:10;;;;;;;19.33;15.55;;;14.40;99.90;;;;;;5094697;27;20093;-61
2023/08/06 02:13:35;;;;;;;20.58;14.57;;;14.50;99.90;;;;;;5101436;27;20063;-61
2023/08/06 02:16:01;;;;;;;18.27;13.48;;;14.50;99.90;;;;;;5112106;27;20136;-60
2023/08/06 02:18:27;;;;;;;16.45;12.13;;;14.50;99.90;;;;;;5114640;27;20046;-61
2023/08/06 02:20:57;;;;;;;19.42;14.38;;;14.50;99.90;;;;;;5093615;27;20388;-61
2023/08/06 02:23:23;;;;;;;14.48;12.30;;;14.50;99.90;;;;;;5120384;27;20039;-60
2023/08/06 02:25:48;;;;;;;15.98;12.85;;;14.60;99.90;;;;;;5123157;27;20027;-61
2023/08/06 02:28:14;;;;;;;15.38;12.85;;;14.60;99.90;;;;;;5102425;27;20051;-61
2023/08/06 02:30:49;;;;;;;13.80;11.07;;;14.60;99.90;;;;;;5117204;27;20035;-61
2023/08/06 02:33:14;;;;;;;14.95;11.35;;;14.60;99.90;;;;;;5101561;27;20402;-61
2023/08/06 02:35:40;;;;;;;16.02;11.80;;;14.60;99.90;;;;;;5097414;27;20043;-60
2023/08/06 02:38:05;;;;;;;14.82;10.93;;;14.60;99.90;;;;;;5094230;27;20664;-60
2023/08/06 02:40:31;;;;;;;14.30;11.07;;;14.50;99.90;;;;;;5111958;27;20045;-61
2023/08/06 02:42:57;;;;;;;14.05;10.88;;;14.60;99.90;;;;;;5098125;27;20046;-60
2023/08/06 02:45:22;;;;;;;14.27;11.85;;;14.60;99.90;;;;;;5120276;27;20493;-60
2023/08/06 02:47:48;;;;;;;14.52;10.88;;;14.60;99.90;;;;;;5099346;28;20048;-60
2023/08/06 02:50:14;;;;;;;15.32;11.38;;;14.60;99.90;;;;;;5116457;27;20036;-60
2023/08/06 02:52:40;;;;;;;15.15;11.38;;;14.60;99.90;;;;;;5115613;27;20050;-60
2023/08/06 02:55:07;;;;;;;15.00;12.07;;;14.60;99.90;;;;;;5101053;27;20047;-59
2023/08/06 02:57:32;;;;;;;18.67;12.85;;;14.60;99.90;;;;;;5084558;28;20044;-60
2023/08/06 02:59:58;;;;;;;15.48;11.85;;;14.50;99.90;;;;;;5099388;27;20046;-60
2023/08/06 03:02:24;;;;;;;14.65;11.80;;;14.50;99.90;;;;;;5092249;28;20051;-60
2023/08/06 03:04:49;;;;;;;14.40;10.65;;;14.50;99.90;;;;;;5116941;27;20039;-60
2023/08/06 03:07:15;;;;;;;13.93;12.38;;;14.50;99.90;;;;;;5119173;27;20935;-60
2023/08/06 03:09:41;;;;;;;16.60;10.98;;;14.50;99.90;;;;;;5097535;27;20112;-59
2023/08/06 03:12:07;;;;;;;18.52;13.15;;;14.40;99.90;;;;;;5100113;27;20335;-61
2023/08/06 03:14:32;;;;;;;14.63;12.15;;;14.50;99.90;;;;;;5094869;27;20096;-60
2023/08/06 03:16:58;;;;;;;17.15;12.75;;;14.40;99.90;;;;;;5102422;27;20044;-60
2023/08/06 03:19:24;;;;;;;16.83;12.60;;;14.40;99.90;;;;;;5077128;27;20075;-60
2023/08/06 03:21:49;;;;;;;16.95;12.77;;;14.40;99.90;;;;;;5097453;27;20566;-61
2023/08/06 03:24:15;;;;;;;16.75;12.85;;;14.40;99.90;;;;;;5102967;27;20061;-63
2023/08/06 03:26:41;;;;;;;13.55;10.65;;;14.40;99.90;;;;;;5120326;27;20522;-63
2023/08/06 03:29:06;;;;;;;13.85;11.93;;;14.40;99.90;;;;;;5099361;27;20532;-63
2023/08/06 03:31:32;;;;;;;18.52;14.90;;;14.40;99.90;;;;;;5114133;27;20047;-63
2023/08/06 03:33:58;;;;;;;21.00;14.13;;;14.40;99.90;;;;;;5119165;27;20043;-63
2023/08/06 03:36:23;;;;;;;18.90;14.52;;;14.40;99.90;;;;;;5122002;27;20114;-62
2023/08/06 03:38:49;;;;;;;15.98;11.32;;;14.40;99.90;;;;;;5094833;27;20051;-63
2023/08/06 03:41:15;;;;;;;22.42;16.00;;;14.40;99.90;;;;;;5113108;27;20071;-62
2023/08/06 03:43:40;;;;;;;15.43;12.93;;;14.40;99.90;;;;;;5091975;27;20050;-63
2023/08/06 03:46:06;;;;;;;14.90;12.02;;;14.40;99.90;;;;;;5116743;27;20502;-62
2023/08/06 03:48:32;;;;;;;20.77;12.07;;;14.40;99.90;;;;;;5115684;27;20031;-62
2023/08/06 03:51:00;;;;;;;23.77;15.65;;;14.40;99.90;;;;;;5117022;27;20383;-63
2023/08/06 03:53:26;;;;;;;17.10;13.68;;;14.40;99.90;;;;;;5122158;27;20039;-62
2023/08/06 03:55:52;;;;;;;14.63;12.00;;;14.40;99.90;;;;;;5097203;27;20027;-62
2023/08/06 03:58:17;;;;;;;18.60;13.52;;;14.40;99.90;;;;;;5117806;27;20034;-62
2023/08/06 04:00:43;;;;;;;19.27;14.63;;;14.40;99.90;;;;;;5101640;27;20047;-62
2023/08/06 04:03:09;;;;;;;18.38;14.07;;;14.40;99.90;;;;;;5113682;27;20080;-63
2023/08/06 04:05:34;;;;;;;17.17;13.80;;;14.40;99.90;;;;;;5093471;27;20046;-63
2023/08/06 04:08:00;;;;;;;18.08;15.52;;;14.40;99.90;;;;;;5092407;28;20043;-62
2023/08/06 04:10:26;;;;;;;24.25;16.25;;;14.40;99.90;;;;;;5098864;28;20078;-63
2023/08/06 04:12:51;;;;;;;19.33;14.65;;;14.50;99.90;;;;;;5110482;27;20092;-63
2023/08/06 04:15:17;;;;;;;15.25;13.35;;;14.50;99.90;;;;;;5097358;27;20104;-63
2023/08/06 04:17:43;;;;;;;15.13;12.30;;;14.50;99.90;;;;;;5099777;27;20124;-63
2023/08/06 04:20:09;;;;;;;18.75;15.35;;;14.50;99.90;;;;;;5097491;27;20040;-62
2023/08/06 04:22:34;;;;;;;18.90;15.05;;;14.50;99.90;;;;;;5104775;27;20342;-63
2023/08/06 04:25:00;;;;;;;17.80;14.77;;;14.50;99.90;;;;;;5090360;28;20040;-63
2023/08/06 04:27:26;;;;;;;16.00;13.98;;;14.40;99.90;;;;;;5102122;27;20692;-63
2023/08/06 04:29:52;;;;;;;19.17;15.95;;;14.40;99.90;;;;;;5113431;27;20571;-62
2023/08/06 04:32:19;;;;;;;18.20;14.52;;;14.50;99.90;;;;;;5095321;27;20126;-62
2023/08/06 04:34:45;;;;;;;21.80;15.85;;;14.50;99.90;;;;;;5077973;28;20100;-62
2023/08/06 04:37:10;;;;;;;18.17;15.02;;;14.50;99.90;;;;;;5093374;27;20121;-63
2023/08/06 04:39:36;;;;;;;17.77;14.65;;;14.50;99.90;;;;;;5095469;28;20050;-62
2023/08/06 04:42:02;;;;;;;18.75;14.93;;;14.60;99.90;;;;;;5110320;27;20044;-62
2023/08/06 04:44:28;;;;;;;14.45;11.60;;;14.60;99.90;;;;;;5113543;27;20042;-63
2023/08/06 04:46:53;;;;;;;21.35;15.70;;;14.60;99.90;;;;;;5095872;27;20052;-62
2023/08/06 04:49:21;;;;;;;20.85;16.23;;;14.60;99.90;;;;;;5096909;28;20100;-62
2023/08/06 04:51:46;;;;;;;20.25;16.00;;;14.70;99.90;;;;;;5116377;28;20039;-62
2023/08/06 04:54:12;;;;;;;14.27;12.77;;;14.70;99.90;;;;;;5078889;28;20096;-63
2023/08/06 04:56:38;;;;;;;16.05;13.82;;;14.70;99.90;;;;;;5099993;28;20047;-62
2023/08/06 04:59:03;;;;;;;22.00;15.75;;;14.70;99.90;;;;;;5117115;27;20457;-63
2023/08/06 05:01:29;;;;;;;20.23;16.75;;;14.70;99.90;;;;;;5120656;28;20043;-63
2023/08/06 05:03:55;;;;;;;19.75;15.13;;;14.70;99.90;;;;;;5110566;28;20414;-62
2023/08/06 05:06:21;;;;;;;14.75;12.68;;;14.70;99.90;;;;;;5094396;28;20028;-62
2023/08/06 05:08:46;;;;;;;20.63;14.35;;;14.70;99.90;;;;;;5119840;28;20054;-62
2023/08/06 05:11:12;;;;;;;15.15;12.82;;;14.70;99.90;;;;;;5094309;28;20056;-63
2023/08/06 05:13:38;;;;;;;18.88;15.35;;;14.70;99.90;;;;;;5097923;28;20168;-63
2023/08/06 05:16:04;;;;;;;16.48;12.70;;;14.70;99.90;;;;;;5100351;28;20054;-63
2023/08/06 05:18:30;;;;;;;13.60;11.88;;;14.80;99.90;;;;;;5094650;28;20083;-63
2023/08/06 05:20:56;;;;;;;19.63;14.00;;;14.80;99.90;;;;;;5108973;28;20039;-63
2023/08/06 05:23:21;;;;;;;16.30;13.23;;;14.80;99.90;;;;;;5112216;28;20031;-62
2023/08/06 05:25:47;;;;;;;19.73;15.27;;;14.70;99.90;;;;;;5114370;28;20030;-63
2023/08/06 05:28:13;;;;;;;19.13;14.20;;;14.80;99.90;;;;;;5097874;28;20042;-63
2023/08/06 05:30:40;;;;;;;15.68;12.00;;;14.70;99.90;;;;;;5106973;27;20815;-61
2023/08/06 05:33:06;;;;;;;21.67;14.88;;;14.70;99.90;;;;;;5114847;28;20070;-63
2023/08/06 05:35:31;;;;;;;15.20;13.45;;;14.70;99.90;;;;;;5095097;28;20131;-63
2023/08/06 05:37:57;;;;;;;15.85;12.65;;;14.70;99.90;;;;;;5095593;28;20477;-62
2023/08/06 05:40:25;;;;;;;17.92;14.90;;;14.70;99.90;;;;;;5114317;28;20092;-63
2023/08/06 05:42:52;;;;;;;14.02;11.30;;;14.70;99.90;;;;;;5097383;28;20044;-62
2023/08/06 05:45:18;;;;;;;17.83;14.02;;;14.70;99.90;;;;;;5110713;28;20410;-63
2023/08/06 05:47:44;;;;;;;19.38;14.23;;;14.70;99.90;;;;;;5077968;28;20035;-63
2023/08/06 05:50:10;;;;;;;16.30;13.25;;;14.70;99.90;;;;;;5093405;28;20503;-62
2023/08/06 05:52:37;;;;;;;18.10;15.05;;;14.70;99.90;;;;;;5112662;27;20694;-62
2023/08/06 05:55:03;;;;;;;20.40;14.13;;;14.70;99.90;;;;;;5098831;27;20035;-63
2023/08/06 05:57:28;;;;;;;19.35;15.02;;;14.70;99.90;;;;;;5097515;27;20051;-63
2023/08/06 05:59:54;;;;;;;17.02;13.05;;;14.70;99.90;;;;;;5120209;27;20656;-63
2023/08/06 06:02:20;;;;;;;18.83;14.20;;;14.70;99.90;;;;;;5099185;27;20079;-62
2023/08/06 06:04:46;;;;;;;19.60;13.88;;;14.70;99.90;;;;;;5096219;27;20035;-63
2023/08/06 06:07:11;;;;;;;17.85;13.60;;;14.70;99.90;;;;;;5099424;27;20464;-63
2023/08/06 06:09:39;;;;;;;16.85;13.38;;;14.70;99.90;;;;;;5097175;27;20070;-63
2023/08/06 06:12:05;;;;;;;15.80;13.68;;;14.80;99.90;;;;;;5117697;27;20044;-63
2023/08/06 06:14:31;;;;;;;15.63;13.95;;;14.80;99.90;;;;;;5118228;27;20039;-63
2023/08/06 06:16:57;;;;;;;15.48;12.43;;;14.80;99.90;;;;;;5115444;27;20043;-62
2023/08/06 06:19:23;;;;;;;18.85;15.68;;;14.80;99.90;;;;;;5120086;27;20096;-63
2023/08/06 06:21:48;;;;;;;17.83;14.77;;;14.90;99.90;;;;;;5078431;27;20305;-62
2023/08/06 06:24:14;;;;;;;17.58;14.82;;;14.90;99.90;;;;;;5111817;27;20093;-63
2023/08/06 06:26:40;;;;;;;18.02;13.80;;;15.00;99.90;;;;;;5096990;27;20034;-63
2023/08/06 06:29:05;;;;;;;18.00;13.90;;;15.00;99.90;;;;;;5100638;27;20078;-63
2023/08/06 06:31:31;;;;;;;17.75;13.15;;;15.10;99.90;;;;;;5120708;27;20440;-62
2023/08/06 06:33:57;;;;;;;18.73;13.52;;;15.20;99.90;;;;;;5099119;27;20502;-63
2023/08/06 06:36:23;;;;;;;19.20;13.73;;;15.20;99.90;;;;;;5102370;27;20049;-63
2023/08/06 06:38:49;;;;;;;17.23;14.15;;;15.20;99.90;;;;;;5076794;28;20482;-63
2023/08/06 06:41:15;;;;;;;15.50;13.00;;;15.20;99.90;;;;;;5097674;27;20039;-63
2023/08/06 06:43:40;;;;;;;13.18;11.05;;;15.20;99.90;;;;;;5116976;27;20096;-63
2023/08/06 06:46:06;;;;;;;17.10;13.82;;;15.30;99.90;;;;;;5111342;27;20043;-63
2023/08/06 06:48:33;;;;;;;14.05;12.27;;;15.40;99.90;;;;;;5102914;27;20478;-62
2023/08/06 06:50:59;;;;;;;15.85;13.80;;;15.40;99.90;;;;;;5109962;27;20042;-62
2023/08/06 06:53:28;;;;;;;17.10;13.00;;;15.50;99.90;;;;;;5110202;27;20035;-63
2023/08/06 06:56:04;;;;;;;15.27;12.18;;;15.50;99.90;;;;;;5113960;27;20061;-63
2023/08/06 06:58:33;;;;;;;18.08;13.98;;;15.60;99.90;;;;;;5096396;27;20035;-63
2023/08/06 07:00:59;;;;;;;14.30;12.45;;;15.70;99.90;;;;;;5117581;27;20055;-61
2023/08/06 07:03:24;;;;;;;13.98;11.80;;;15.80;99.90;;;;;;5097265;27;20043;-62
2023/08/06 07:05:50;;;;;;;16.52;13.02;;;15.90;99.90;;;;;;5094787;27;20104;-63
2023/08/06 07:08:19;;;;;;;14.15;11.35;;;15.90;99.90;;;;;;5117861;27;20067;-63
2023/08/06 07:10:59;;;;;;;15.25;12.10;;;16.00;99.90;;;;;;5092528;27;20083;-62
2023/08/06 07:13:24;;;;;;;12.35;10.75;;;16.00;99.90;;;;;;5113079;27;20043;-63
2023/08/06 07:15:50;;;;;;;17.45;11.57;;;16.10;99.90;;;;;;5115096;27;20181;-62
2023/08/06 07:18:16;;;;;;;15.40;12.73;;;16.10;99.90;;;;;;5093151;27;20035;-62
2023/08/06 07:20:41;;;;;;;13.32;11.25;;;16.20;99.90;;;;;;5112118;27;20049;-62
2023/08/06 07:23:07;;;;;;;15.52;11.43;;;16.20;99.90;;;;;;5097730;27;20449;-63
2023/08/06 07:25:33;;;;;;;12.40;11.05;;;16.20;99.90;;;;;;5112873;27;20051;-63
2023/08/06 07:27:59;;;;;;;12.30;11.02;;;16.20;99.90;;;;;;5096748;27;20031;-63
2023/08/06 07:30:24;;;;;;;14.25;10.90;;;16.30;99.90;;;;;;5082009;27;20067;-63
2023/08/06 07:32:50;;;;;;;12.80;11.43;;;16.30;99.90;;;;;;5102994;27;20070;-62
2023/08/06 07:35:16;;;;;;;12.30;10.93;;;16.40;99.90;;;;;;5097730;27;20045;-63
2023/08/06 07:37:41;;;;;;;12.38;10.70;;;16.50;99.90;;;;;;5096036;27;20043;-62
2023/08/06 07:40:08;;;;;;;12.05;10.57;;;16.50;99.90;;;;;;5093699;28;20046;-62
2023/08/06 07:42:34;;;;;;;12.68;10.40;;;16.60;99.90;;;;;;5110843;27;20055;-62
2023/08/06 07:45:00;;;;;;;11.25;9.32;;;16.60;99.90;;;;;;5113200;27;20027;-63
2023/08/06 07:47:25;;;;;;;12.93;9.25;;;16.70;99.90;;;;;;5114973;27;20032;-62
2023/08/06 07:49:51;;;;;;;11.35;9.27;;;16.70;99.90;;;;;;5115111;27;20487;-62
2023/08/06 07:52:17;;;;;;;10.07;9.00;;;16.70;99.90;;;;;;5115609;27;20028;-63
2023/08/06 07:54:43;;;;;;;10.48;9.40;;;16.80;99.90;;;;;;5114560;27;20185;-63
2023/08/06 07:57:08;;;;;;;9.88;8.88;;;16.90;99.90;;;;;;5109158;27;20490;-62
2023/08/06 07:59:34;;;;;;;11.15;9.60;;;16.90;99.90;;;;;;5095794;27;20032;-63
2023/08/06 08:02:00;;;;;;;14.07;9.57;;;17.00;99.90;;;;;;5075249;27;20048;-63
2023/08/06 08:04:26;;;;;;;10.10;8.48;;;17.10;99.90;;;;;;5079063;27;20530;-62
2023/08/06 08:06:53;;;;;;;9.95;8.93;;;17.20;99.90;;;;;;5086380;28;20043;-62
2023/08/06 08:09:19;;;;;;;10.55;9.38;;;17.20;99.90;;;;;;5094459;27;20088;-62
2023/08/06 08:11:45;;;;;;;10.90;9.15;;;17.30;99.90;;;;;;5096038;27;20089;-62
2023/08/06 08:14:11;;;;;;;9.93;8.23;;;17.20;99.90;;;;;;5112368;27;20505;-61
2023/08/06 08:16:37;;;;;;;10.27;8.95;;;17.40;99.90;;;;;;5117979;27;20047;-62
2023/08/06 08:19:03;;;;;;;9.57;8.55;;;17.50;99.90;;;;;;5076566;27;20043;-61
2023/08/06 08:21:29;;;;;;;9.85;7.78;;;17.70;99.90;;;;;;5097181;28;20098;-62
2023/08/06 08:23:55;;;;;;;8.95;8.05;;;17.80;99.90;;;;;;5111500;27;20066;-60
2023/08/06 08:26:21;;;;;;;7.95;6.97;;;17.90;99.90;;;;;;5089490;28;20050;-62
2023/08/06 08:28:46;;;;;;;8.13;6.38;;;18.00;99.90;;;;;;5091648;27;20474;-62
2023/08/06 08:31:12;;;;;;;7.75;6.68;;;18.20;99.90;;;;;;5092900;28;20048;-62
2023/08/06 08:33:38;;;;;;;6.72;5.85;;;18.20;99.90;;;;;;5085759;27;20118;-60
2023/08/06 08:36:04;;;;;;;7.78;6.43;;;18.20;99.90;;;;;;5116116;27;20062;-60
2023/08/06 08:38:30;;;;;;;7.57;6.78;;;18.20;99.90;;;;;;5113183;27;20669;-61
2023/08/06 08:40:56;;;;;;;8.25;6.47;;;18.20;99.90;;;;;;5108539;27;20039;-61
2023/08/06 08:43:22;;;;;;;7.80;7.00;;;18.20;99.90;;;;;;5115139;27;20070;-61
2023/08/06 08:45:54;;;;;;;8.18;6.05;;;18.20;99.90;;;;;;5109187;28;20046;-61
2023/08/06 08:48:21;;;;;;;7.25;6.15;;;18.20;99.90;;;;;;5110461;27;20123;-60
2023/08/06 08:50:49;;;;;;;7.85;6.03;;;18.30;99.90;;;;;;5114586;27;20039;-61
2023/08/06 08:53:16;;;;;;;7.50;6.00;;;18.40;99.90;;;;;;5089828;28;20049;-61
2023/08/06 08:55:44;;;;;;;8.27;6.47;;;18.50;99.90;;;;;;5105967;27;20050;-61
2023/08/06 08:58:10;;;;;;;9.77;6.25;;;18.60;99.90;;;;;;5111037;27;20086;-60
2023/08/06 09:00:36;;;;;;;7.75;5.35;;;18.70;99.90;;;;;;5096762;28;20035;-60
2023/08/06 09:03:05;;;;;;;7.20;5.35;;;18.80;99.90;;;;;;5114522;28;20043;-59
2023/08/06 09:05:32;;;;;;;6.07;4.68;;;18.90;99.90;;;;;;5094889;28;20040;-61
2023/08/06 09:08:03;;;;;;;7.30;5.13;;;19.00;99.90;;;;;;5096715;28;20300;-61
2023/08/06 09:10:29;;;;;;;5.63;5.05;;;19.20;99.90;;;;;;5089676;28;20066;-61
2023/08/06 09:12:56;;;;;;;5.50;4.30;;;19.30;99.90;;;;;;5096189;28;20066;-61
2023/08/06 09:15:25;;;;;;;7.05;5.00;;;19.30;99.90;;;;;;5114241;28;20043;-61
2023/08/06 09:17:55;;;;;;;8.02;4.45;;;19.30;99.90;;;;;;5094943;28;20074;-61
2023/08/06 09:20:21;;;;;;;5.82;4.90;;;19.50;99.90;;;;;;5088779;28;20043;-60
2023/08/06 09:22:48;;;;;;;7.05;5.18;;;19.50;99.90;;;;;;5114609;28;20551;-61
2023/08/06 09:25:25;;;;;;;5.22;3.75;;;19.50;99.90;;;;;;5116290;28;20031;-62
2023/08/06 09:27:51;;;;;;;5.10;3.78;;;19.50;99.90;;;;;;5098141;28;20044;-60
2023/08/06 09:30:31;;;;;;;3.88;3.35;;;19.50;99.90;;;;;;5095638;27;20046;-61
2023/08/06 09:32:57;;;;;;;5.07;3.63;;;19.60;99.90;;;;;;5102905;27;20028;-61
2023/08/06 09:35:23;;;;;;;4.40;3.45;;;19.60;99.90;;;;;;5101767;27;20402;-60
2023/08/06 09:37:48;;;;;;;3.92;3.28;;;19.70;99.90;;;;;;5097239;27;20039;-60
2023/08/06 09:40:30;;;;;;;6.85;3.92;;;19.80;99.90;;;;;;5081765;27;20039;-61
2023/08/06 09:42:57;;;;;;;4.82;3.40;;;19.90;99.90;;;;;;5086919;27;20553;-61
2023/08/06 09:45:27;;;;;;;4.78;3.35;;;20.00;99.90;;;;;;5097957;27;20068;-61
2023/08/06 09:47:57;;;;;;;3.70;3.00;;;20.00;99.90;;;;;;5113981;27;20032;-61
2023/08/06 09:50:28;;;;;;;4.05;2.90;;;19.90;99.90;;;;;;5113595;27;20039;-61
2023/08/06 09:52:54;;;;;;;4.15;3.03;;;19.90;99.90;;;;;;5098012;27;20074;-61
2023/08/06 09:55:21;;;;;;;5.32;2.97;;;19.90;99.90;;;;;;5115161;27;20082;-61
2023/08/06 09:57:48;;;;;;;6.60;3.25;;;19.90;99.90;;;;;;5100306;27;20346;-59
2023/08/06 10:00:13;;;;;;;3.55;2.70;;;20.00;99.90;;;;;;5114424;27;20053;-62
2023/08/06 10:02:40;;;;;;;6.07;2.53;;;20.00;99.90;;;;;;5105371;27;20419;-61
2023/08/06 10:05:09;;;;;;;3.33;2.20;;;20.00;99.90;;;;;;5084283;27;20042;-60
2023/08/06 10:07:38;;;;;;;3.55;2.33;;;20.00;99.90;;;;;;5115506;27;20082;-61
2023/08/06 10:10:05;;;;;;;5.28;2.42;;;20.00;99.90;;;;;;5100087;27;20444;-61
2023/08/06 10:12:34;;;;;;;2.83;2.40;;;20.10;99.90;;;;;;5098174;28;20051;-60
2023/08/06 10:15:04;;;;;;;3.90;2.15;;;20.10;99.90;;;;;;5122603;27;20406;-59
2023/08/06 10:17:31;;;;;;;3.28;2.30;;;20.20;99.90;;;;;;5102398;27;20112;-61
2023/08/06 10:19:59;;;;;;;2.75;2.08;;;20.20;99.90;;;;;;5087799;27;20039;-61
2023/08/06 10:22:27;;;;;;;3.42;2.38;;;20.20;99.90;;;;;;5113657;27;20047;-61
2023/08/06 10:24:54;;;;;;;3.72;2.15;;;20.20;99.90;;;;;;5109960;27;20032;-61
2023/08/06 10:27:30;;;;;;;3.67;2.00;;;20.20;99.90;;;;;;5095963;27;20035;-60
2023/08/06 10:30:15;;;;;;;3.13;2.03;;;20.30;99.90;;;;;;5095734;28;20039;-59
2023/08/06 10:32:49;;;;;;;2.85;1.95;;;20.30;99.90;;;;;;5076118;27;20039;-61
2023/08/06 10:35:45;;;;;;;3.20;2.22;;;20.30;99.90;;;;;;5120712;27;20039;-61
2023/08/06 10:38:22;;;;;;;3.58;2.15;;;20.40;99.90;;;;;;5117264;27;20027;-60
2023/08/06 10:40:54;;;;;;;2.20;2.00;;;20.40;99.90;;;;;;5100144;27;20047;-57
2023/08/06 10:43:27;;;;;;;3.90;2.30;;;20.40;99.90;;;;;;5097846;27;20126;-59
2023/08/06 10:45:59;;;;;;;4.13;2.05;;;20.50;99.90;;;;;;5115601;27;20458;-59
2023/08/06 10:48:47;;;;;;;3.00;2.08;;;20.50;99.90;;;;;;5114484;27;20777;-58
2023/08/06 10:51:14;;;;;;;5.30;2.17;;;20.60;99.90;;;;;;5080773;27;20043;-58
2023/08/06 10:53:45;;;;;;;5.15;2.85;;;20.60;99.90;;;;;;5110504;27;20490;-58
2023/08/06 10:56:22;;;;;;;6.45;3.13;;;20.70;99.90;;;;;;5114438;27;20032;-59
2023/08/06 10:58:49;;;;;;;4.50;3.08;;;20.80;99.90;;;;;;5114788;27;20362;-59
2023/08/06 11:01:15;;;;;;;5.03;2.53;;;20.80;99.90;;;;;;5113231;27;20035;-59
2023/08/06 11:03:42;;;;;;;3.75;3.13;;;20.50;99.90;;;;;;5093878;27;20118;-59
2023/08/06 11:06:09;;;;;;;5.15;2.78;;;20.50;99.90;;;;;;5119779;27;20122;-58
2023/08/06 11:08:46;;;;;;;6.10;2.75;;;20.60;99.90;;;;;;5111480;27;20379;-59
2023/08/06 11:11:13;;;;;;;4.78;2.95;;;20.50;99.90;;;;;;5112390;27;20122;-60
2023/08/06 11:13:46;;;;;;;4.88;3.25;;;20.50;99.90;;;;;;5110462;27;20040;-59
2023/08/06 11:16:24;;;;;;;4.60;3.38;;;20.60;99.90;;;;;;5118534;27;20043;-60
2023/08/06 11:18:50;;;;;;;4.78;3.20;;;20.70;99.90;;;;;;5108352;27;20044;-61
2023/08/06 11:21:20;;;;;;;5.10;3.60;;;20.50;99.90;;;;;;5100371;27;20039;-61
2023/08/06 11:23:46;;;;;;;4.93;3.20;;;20.50;99.90;;;;;;5110882;27;20374;-61
2023/08/06 11:26:12;;;;;;;5.57;3.05;;;20.70;99.90;;;;;;5100685;27;20035;-60
2023/08/06 11:28:38;;;;;;;6.65;3.35;;;20.90;99.90;;;;;;5113998;27;20489;-60
2023/08/06 11:31:03;;;;;;;4.00;2.85;;;20.90;99.90;;;;;;5094418;28;20041;-61
2023/08/06 11:33:29;;;;;;;5.05;2.95;;;20.90;99.90;;;;;;5114014;27;20057;-61
2023/08/06 11:35:57;;;;;;;6.28;3.28;;;20.80;99.90;;;;;;5111846;27;20051;-61
2023/08/06 11:38:28;;;;;;;5.25;3.10;;;21.00;99.90;;;;;;5106978;27;20058;-61
2023/08/06 11:40:54;;;;;;;6.07;2.83;;;21.10;99.90;;;;;;5093113;27;20047;-60
2023/08/06 11:43:22;;;;;;;5.93;2.83;;;21.20;99.90;;;;;;5112680;27;20031;-61
2023/08/06 11:45:53;;;;;;;4.43;3.38;;;21.40;99.90;;;;;;5110829;27;20039;-61
2023/08/06 11:48:19;;;;;;;4.63;2.85;;;21.60;99.90;;;;;;5114344;27;20502;-61
2023/08/06 11:50:45;;;;;;;4.53;3.05;;;21.60;99.90;;;;;;5111243;27;20108;-61
2023/08/06 11:53:15;;;;;;;3.28;2.42;;;21.70;99.90;;;;;;5117585;27;20042;-61
2023/08/06 11:55:41;;;;;;;4.95;2.88;;;21.90;99.90;;;;;;5114172;27;20104;-61
2023/08/06 11:58:07;;;;;;;3.85;2.90;;;22.10;99.90;;;;;;5093204;27;20571;-61
2023/08/06 12:00:33;;;;;;;5.10;2.97;;;22.10;99.90;;;;;;5112568;27;20095;-61
2023/08/06 12:02:59;;;;;;;3.63;2.42;;;22.10;99.90;;;;;;5092522;27;20036;-61
2023/08/06 12:05:31;;;;;;;4.10;2.40;;;22.20;99.90;;;;;;5094427;27;20510;-62
2023/08/06 12:07:58;;;;;;;3.65;2.33;;;22.40;99.90;;;;;;5114149;27;20034;-62
2023/08/06 12:10:25;;;;;;;4.43;2.20;;;22.60;99.90;;;;;;5108770;27;20035;-62
2023/08/06 12:12:51;;;;;;;4.75;2.35;;;22.70;99.90;;;;;;5111003;27;20047;-62
2023/08/06 12:15:17;;;;;;;5.55;2.75;;;22.90;99.90;;;;;;5094972;27;20043;-61
2023/08/06 12:17:43;;;;;;;3.78;2.83;;;23.00;99.90;;;;;;5110123;27;20035;-61
2023/08/06 12:20:10;;;;;;;3.58;2.20;;;22.70;99.90;;;;;;5089807;28;20039;-61
2023/08/06 12:22:38;;;;;;;4.45;2.58;;;22.30;99.90;;;;;;5087358;28;20067;-62
2023/08/06 12:25:08;;;;;;;3.92;2.72;;;22.10;99.90;;;;;;5094538;28;20348;-61
2023/08/06 12:27:41;;;;;;;4.38;2.30;;;22.00;99.90;;;;;;5113561;27;20399;-61
2023/08/06 12:30:08;;;;;;;3.83;2.40;;;21.90;99.90;;;;;;5095686;28;20039;-60
2023/08/06 12:32:34;;;;;;;3.70;2.67;;;21.80;99.90;;;;;;5091526;27;20047;-61